Time;durP1;ratioP1;P1;durP2;ratioP2;P2;SDS_P1;SDS_P2;PMS_P1;PMS_P2;Temp;Humidity;BMP_temperature;BMP_pressure;BME280_temperature;BME280_humidity;BME280_pressure;Samples;Min_cycle;Max_cycle;Signal;HPM_P1;HPM_P2
2021/12/11 00:27:44;;;;;;;;;5.67;5.33;;;;;5.40;86.73;100810.47;5545759;22;46359;-96
2021/12/11 03:11:39;;;;;;;;;5.00;5.00;;;;;4.64;86.71;101074.94;6080666;23;45268;31
2021/12/11 03:14:12;;;;;;;;;5.33;3.67;;;;;4.61;87.02;101073.00;5125950;23;46336;-96
2021/12/11 03:40:59;;;;;;;;;4.33;3.00;;;;;4.23;86.57;101098.78;5587795;23;46782;-96
2021/12/11 03:43:52;;;;;;;;;4.67;3.00;;;;;4.18;86.46;101094.94;4964136;28;44809;-96
2021/12/11 07:17:12;;;;;;;;;5.00;5.00;;;;;3.88;85.51;101429.44;6106441;23;46451;31
2021/12/11 07:19:38;;;;;;;;;5.00;3.33;;;;;3.90;85.47;101430.47;4931441;28;45432;-83
2021/12/11 07:22:04;;;;;;;;;6.00;5.00;;;;;3.91;85.53;101434.88;4930743;28;46005;-84
2021/12/11 07:24:40;;;;;;;;;10.00;8.25;;;;;3.91;85.73;101421.91;4930877;28;45851;-84
2021/12/11 07:27:08;;;;;;;;;14.75;9.00;;;;;3.95;85.47;101438.63;4933055;28;45616;-84
2021/12/11 07:29:35;;;;;;;;;13.00;13.00;;;;;3.99;85.52;101440.72;4929564;28;47558;-84
2021/12/11 07:32:03;;;;;;;;;13.25;9.75;;;;;3.99;85.92;101444.25;4930879;28;45424;-85
2021/12/11 07:34:29;;;;;;;;;18.25;14.25;;;;;4.04;85.65;101436.81;4934739;28;45430;-84
2021/12/11 07:36:55;;;;;;;;;15.25;13.75;;;;;4.02;85.41;101435.78;4917670;28;45531;-84
2021/12/11 07:39:21;;;;;;;;;8.50;7.00;;;;;3.99;84.90;101440.72;4919874;28;47156;-84
2021/12/11 07:41:49;;;;;;;;;9.67;9.67;;;;;4.02;84.56;101461.78;4937161;28;46705;-87
2021/12/11 07:44:14;;;;;;;;;7.33;5.67;;;;;4.01;84.62;101470.34;4936854;28;45401;-88
2021/12/11 07:46:40;;;;;;;;;8.25;5.00;;;;;4.01;84.35;101479.03;4937228;28;45520;-86
2021/12/11 07:49:07;;;;;;;;;9.50;8.75;;;;;3.95;84.10;101464.59;4933725;28;47368;-88
2021/12/11 07:51:34;;;;;;;;;10.00;9.25;;;;;3.89;83.95;101462.44;4917552;28;45920;-86
2021/12/11 07:54:01;;;;;;;;;12.00;11.50;;;;;3.90;84.16;101475.53;4939880;28;45448;-86
2021/12/11 07:56:27;;;;;;;;;9.50;9.25;;;;;3.86;83.76;101480.34;4934827;28;45352;-86
2021/12/11 07:58:57;;;;;;;;;9.00;9.00;;;;;3.84;83.56;101489.72;4931812;28;45598;-86
2021/12/11 08:01:23;;;;;;;;;10.00;8.75;;;;;3.81;83.51;101485.16;4936789;28;45479;-86
2021/12/11 08:03:48;;;;;;;;;9.00;7.50;;;;;3.77;83.94;101496.97;4925402;28;45750;-86
2021/12/11 08:06:15;;;;;;;;;11.00;7.50;;;;;3.78;84.21;101506.59;4909179;28;45557;-86
2021/12/11 08:08:43;;;;;;;;;10.25;9.25;;;;;3.80;84.18;101512.81;4942252;28;45674;-85
2021/12/11 08:11:13;;;;;;;;;9.00;9.00;;;;;3.82;84.54;101518.13;4945332;28;45494;-88
2021/12/11 08:13:41;;;;;;;;;15.00;9.25;;;;;3.86;84.56;101515.03;4932620;28;45610;-85
2021/12/11 08:16:07;;;;;;;;;9.75;9.25;;;;;3.83;84.27;101513.84;4929029;28;45602;-86
2021/12/11 08:18:33;;;;;;;;;15.50;10.00;;;;;3.89;84.22;101527.38;4940759;28;45630;-85
2021/12/11 08:20:59;;;;;;;;;14.25;13.50;;;;;3.87;84.56;101527.22;4937027;28;45393;-86
2021/12/11 08:23:25;;;;;;;;;13.50;11.25;;;;;3.85;84.05;101515.78;4935757;28;45377;-86
2021/12/11 08:25:52;;;;;;;;;13.25;9.25;;;;;3.90;84.36;101514.50;4936494;28;45550;-86
2021/12/11 08:28:22;;;;;;;;;12.75;11.25;;;;;4.01;84.58;101531.00;4937430;28;46264;-85
2021/12/11 08:30:51;;;;;;;;;10.75;9.75;;;;;4.13;85.19;101528.53;4940154;28;45879;-86
2021/12/11 08:33:17;;;;;;;;;14.25;9.00;;;;;4.36;85.50;101541.63;4925399;28;45440;-86
2021/12/11 08:35:43;;;;;;;;;13.00;12.50;;;;;4.55;85.13;101535.38;4934141;28;45526;-86
2021/12/11 08:38:09;;;;;;;;;11.25;9.50;;;;;4.67;85.03;101522.44;4919654;28;47261;-85
2021/12/11 08:40:42;;;;;;;;;13.25;12.50;;;;;4.82;84.76;101512.38;4927966;28;45896;-86
2021/12/11 08:43:09;;;;;;;;;15.25;12.75;;;;;4.95;84.97;101531.63;4939552;28;45494;-86
2021/12/11 08:45:47;;;;;;;;;24.00;24.00;;;;;5.02;84.76;101526.13;4935631;28;45454;-86
2021/12/11 08:48:17;;;;;;;;;21.00;15.50;;;;;5.13;84.86;101535.69;4935719;28;46422;-86
2021/12/11 08:50:43;;;;;;;;;27.00;20.75;;;;;5.30;85.13;101541.34;4935375;28;45412;-86
2021/12/11 08:53:09;;;;;;;;;15.75;14.75;;;;;5.35;84.86;101534.81;4917052;28;45513;-86
2021/12/11 08:55:39;;;;;;;;;26.50;21.75;;;;;5.50;84.57;101549.84;4919727;28;45404;-86
2021/12/11 08:58:07;;;;;;;;;18.75;17.50;;;;;5.58;84.73;101550.44;4933243;28;47360;-85
2021/12/11 09:01:04;;;;;;;;;14.50;10.75;;;;;5.75;85.03;101558.66;4913101;28;45634;-85
2021/12/11 09:03:36;;;;;;;;;11.00;11.00;;;;;5.85;84.67;101562.91;4853552;29;45837;-85
2021/12/11 09:06:05;;;;;;;;;8.00;8.00;;;;;5.95;84.82;101557.63;4847458;29;45581;-85
2021/12/11 09:08:46;;;;;;;;;10.00;8.33;;;;;6.01;84.79;101552.88;4856182;29;45385;-85
2021/12/11 09:11:17;;;;;;;;;9.00;7.00;;;;;6.13;84.38;101568.56;4848819;29;45387;-85
2021/12/11 09:13:57;;;;;;;;;8.67;8.67;;;;;6.21;84.47;101571.75;4858231;29;45450;-84
2021/12/11 09:16:33;;;;;;;;;10.00;8.67;;;;;6.24;83.95;101582.44;4840902;29;49343;-85
2021/12/11 09:19:08;;;;;;;;;8.33;8.33;;;;;6.25;83.65;101575.53;4856272;29;47387;-86
2021/12/11 09:22:08;;;;;;;;;11.00;6.67;;;;;6.29;83.52;101587.13;4849176;29;45512;-85
2021/12/11 09:25:14;;;;;;;;;3.00;3.00;;;;;6.42;82.91;101600.28;4838607;29;45742;-85
2021/12/11 09:27:49;;;;;;;;;14.00;7.67;;;;;6.47;83.60;101601.53;4846443;29;45584;-85
2021/12/11 09:30:23;;;;;;;;;10.33;5.33;;;;;6.54;84.36;101602.03;4856543;29;45738;-85
2021/12/11 09:32:53;;;;;;;;;5.33;5.00;;;;;6.67;83.65;101611.69;4852527;29;46098;-85
2021/12/11 09:35:27;;;;;;;;;6.00;6.00;;;;;6.75;82.48;101623.59;4857129;29;45457;-85
2021/12/11 09:37:59;;;;;;;;;10.00;8.33;;;;;6.79;82.52;101624.72;4856028;29;45576;-85
2021/12/11 09:40:36;;;;;;;;;10.67;6.67;;;;;6.83;82.39;101629.38;4910976;28;47679;-85
2021/12/11 09:43:02;;;;;;;;;9.33;7.00;;;;;6.85;82.52;101627.81;4934789;28;45557;-85
2021/12/11 09:45:34;;;;;;;;;12.00;7.33;;;;;6.91;81.71;101627.34;4935538;28;45413;-85
2021/12/11 09:48:06;;;;;;;;;6.67;6.67;;;;;6.95;82.60;101623.28;4933047;28;45529;-85
2021/12/11 09:50:45;;;;;;;;;7.67;4.67;;;;;7.03;83.15;101614.31;4934873;28;47186;-85
2021/12/11 09:53:14;;;;;;;;;7.00;7.00;;;;;7.17;83.56;101624.84;4916557;28;45897;-85
2021/12/11 09:55:40;;;;;;;;;6.67;6.67;;;;;7.23;82.13;101630.53;4934351;28;45364;-85
2021/12/11 09:58:10;;;;;;;;;10.67;7.67;;;;;7.30;82.72;101630.19;4913955;28;45571;-85
2021/12/11 10:00:38;;;;;;;;;9.67;6.67;;;;;7.38;82.04;101639.50;4934518;28;46489;-85
2021/12/11 10:03:07;;;;;;;;;6.67;6.00;;;;;7.43;82.31;101647.66;4932688;28;45690;-85
2021/12/11 10:05:43;;;;;;;;;11.00;10.00;;;;;7.48;81.63;101648.00;4937661;28;45365;-86
2021/12/11 10:08:30;;;;;;;;;8.67;7.67;;;;;7.62;82.03;101658.53;4933892;28;45560;-85
2021/12/11 10:11:22;;;;;;;;;8.67;7.00;;;;;7.66;81.37;101656.25;4933648;28;46394;-85
2021/12/11 10:13:59;;;;;;;;;11.00;9.33;;;;;7.68;81.53;101648.53;4930663;28;45457;-85
2021/12/11 10:16:30;;;;;;;;;11.33;10.67;;;;;7.75;82.08;101655.09;4935469;28;45391;-85
2021/12/11 10:18:56;;;;;;;;;11.00;10.00;;;;;7.79;82.30;101647.59;4914734;28;45449;-85
2021/12/11 10:21:30;;;;;;;;;6.33;6.33;;;;;7.89;82.15;101653.47;4933534;28;46336;-85
2021/12/11 10:23:59;;;;;;;;;6.33;6.00;;;;;7.96;82.25;101646.97;4937525;28;45421;-85
2021/12/11 10:26:25;;;;;;;;;8.00;7.33;;;;;8.09;82.01;101657.47;4918142;28;45529;-86
2021/12/11 10:28:55;;;;;;;;;1.00;0.00;;;;;8.19;82.31;101655.53;4931178;28;45502;-84
2021/12/11 10:31:30;;;;;;;;;7.67;6.00;;;;;8.25;78.40;101649.00;4939129;28;46256;-85
2021/12/11 10:33:58;;;;;;;;;6.00;5.00;;;;;8.24;80.66;101649.84;4934688;28;45426;-85
2021/12/11 10:36:27;;;;;;;;;7.33;4.67;;;;;8.38;81.15;101666.47;4933320;28;45834;-85
2021/12/11 10:38:56;;;;;;;;;8.00;6.67;;;;;8.44;80.54;101663.38;4933313;28;45430;-85
2021/12/11 10:41:22;;;;;;;;;6.67;4.33;;;;;8.48;80.53;101649.69;4931919;28;45647;-85
2021/12/11 10:44:03;;;;;;;;;9.00;8.33;;;;;8.62;79.56;101667.19;4933631;28;45484;-85
2021/12/11 10:46:33;;;;;;;;;8.00;6.67;;;;;8.67;81.54;101660.53;4932783;28;45488;-85
2021/12/11 10:48:59;;;;;;;;;6.67;3.67;;;;;8.77;81.32;101657.75;4916838;28;45491;-85
2021/12/11 10:51:39;;;;;;;;;6.00;6.00;;;;;8.88;80.21;101662.81;4932771;28;47123;-85
2021/12/11 10:54:05;;;;;;;;;9.00;7.00;;;;;8.95;79.34;101662.41;4935604;28;45789;-85
2021/12/11 10:56:31;;;;;;;;;3.67;2.67;;;;;8.92;79.84;101662.19;4916823;28;45416;-85
2021/12/11 10:59:13;;;;;;;;;3.00;3.00;;;;;8.93;78.99;101666.63;4917299;28;45565;-85
2021/12/11 11:01:52;;;;;;;;;7.00;4.00;;;;;8.94;79.15;101665.84;4933218;28;46528;-85
2021/12/11 11:04:27;;;;;;;;;8.00;6.00;;;;;8.98;80.16;101672.19;4934432;28;45379;-85
2021/12/11 11:06:53;;;;;;;;;6.00;4.00;;;;;9.03;78.88;101665.53;4931363;28;45428;-85
2021/12/11 11:09:20;;;;;;;;;7.67;4.00;;;;;9.09;79.86;101667.66;4934075;28;45718;-85
2021/12/11 11:11:48;;;;;;;;;8.33;6.00;;;;;9.20;77.86;101666.66;4933436;28;46529;-85
2021/12/11 11:14:15;;;;;;;;;2.33;2.33;;;;;9.20;77.57;101668.38;4932753;28;45584;-85
2021/12/11 11:16:45;;;;;;;;;8.33;6.67;;;;;9.19;75.55;101671.78;4932997;28;45386;-85
2021/12/11 11:19:11;;;;;;;;;3.33;2.00;;;;;9.16;78.00;101673.41;4934708;28;45467;-85
2021/12/11 11:21:41;;;;;;;;;7.00;5.00;;;;;9.24;78.39;101673.00;4914855;28;46996;-85
2021/12/11 11:24:08;;;;;;;;;7.33;6.00;;;;;9.26;78.19;101658.28;4933982;28;45329;-85
2021/12/11 11:26:37;;;;;;;;;8.67;7.00;;;;;9.38;77.88;101664.31;4933732;28;45387;-85
2021/12/11 11:29:11;;;;;;;;;7.67;6.00;;;;;9.50;79.52;101655.47;4933970;28;45559;-85
2021/12/11 11:31:39;;;;;;;;;8.67;6.00;;;;;9.60;76.48;101650.00;4916462;28;47530;-84
2021/12/11 11:34:08;;;;;;;;;6.33;5.33;;;;;9.60;74.98;101665.72;4910717;28;45483;-85
2021/12/11 11:36:34;;;;;;;;;10.67;7.00;;;;;9.50;75.25;101669.47;4926442;28;45317;-85
2021/12/11 11:39:06;;;;;;;;;10.00;8.33;;;;;9.42;75.70;101661.91;4932096;28;45640;-85
2021/12/11 11:41:36;;;;;;;;;8.33;7.33;;;;;9.34;76.42;101667.56;4914453;28;46447;-86
2021/12/11 11:44:04;;;;;;;;;9.00;7.33;;;;;9.27;76.55;101663.66;4932772;28;45475;-88
2021/12/11 11:46:29;;;;;;;;;6.00;4.67;;;;;9.23;77.05;101674.72;4933769;28;45689;-84
2021/12/11 11:48:59;;;;;;;;;4.67;4.67;;;;;9.20;75.11;101668.38;4932449;28;45540;-84
2021/12/11 11:51:31;;;;;;;;;7.33;6.33;;;;;9.22;77.30;101679.88;4913734;28;47409;-85
2021/12/11 11:53:57;;;;;;;;;8.00;5.67;;;;;9.22;78.39;101687.72;4931597;28;45823;-86
2021/12/11 11:56:26;;;;;;;;;7.00;6.33;;;;;9.25;78.18;101678.34;4914910;28;45382;-85
2021/12/11 11:58:53;;;;;;;;;6.00;6.00;;;;;9.32;78.12;101677.03;4930345;28;45560;-84
2021/12/11 12:01:26;;;;;;;;;7.00;5.67;;;;;9.35;75.08;101677.25;4924911;28;46580;-84
2021/12/11 12:03:52;;;;;;;;;6.67;6.67;;;;;9.35;77.18;101672.00;4930749;28;45480;-83
2021/12/11 12:06:23;;;;;;;;;8.00;6.00;;;;;9.42;77.97;101685.50;4931700;28;45463;-86
2021/12/11 12:08:50;;;;;;;;;7.33;6.67;;;;;9.41;77.95;101667.94;4931340;28;45517;-85
2021/12/11 12:11:16;;;;;;;;;8.00;7.00;;;;;9.50;77.41;101674.72;4927583;28;45419;-85
2021/12/11 12:13:42;;;;;;;;;3.67;3.67;;;;;9.54;77.89;101667.03;4932292;28;45528;-85
2021/12/11 12:16:11;;;;;;;;;9.67;7.00;;;;;9.64;78.27;101665.94;4936434;28;45439;-84
2021/12/11 12:18:41;;;;;;;;;3.33;3.33;;;;;9.71;78.35;101663.81;4915058;28;45499;-85
2021/12/11 12:21:12;;;;;;;;;15.00;9.00;;;;;9.80;77.64;101667.78;4936633;28;47617;-84
2021/12/11 12:23:38;;;;;;;;;8.33;5.00;;;;;9.88;77.74;101678.78;4935521;28;46135;-85
2021/12/11 12:26:07;;;;;;;;;7.33;4.00;;;;;9.98;77.27;101694.28;4935344;28;45282;-85
2021/12/11 12:28:33;;;;;;;;;4.33;4.33;;;;;10.09;77.58;101691.44;4935582;28;45840;-85
2021/12/11 12:31:08;;;;;;;;;3.67;3.67;;;;;10.18;76.56;101702.50;4933430;28;46048;-84
2021/12/11 12:33:34;;;;;;;;;7.00;3.00;;;;;10.30;75.83;101702.38;4935127;28;45827;-84
2021/12/11 12:35:59;;;;;;;;;8.33;4.67;;;;;10.32;76.80;101707.69;4937543;28;45784;-84
2021/12/11 12:38:29;;;;;;;;;8.33;4.00;;;;;10.32;76.86;101703.38;4935015;28;45548;-83
2021/12/11 12:41:04;;;;;;;;;12.00;7.67;;;;;10.28;76.47;101707.50;4918011;28;47752;-84
2021/12/11 12:46:34;;;;;;;;;5.67;4.67;;;;;10.33;74.36;101699.03;4894483;28;45472;-84
2021/12/11 12:49:00;;;;;;;;;7.00;4.33;;;;;10.37;76.09;101706.25;4895860;28;45549;-85
2021/12/11 12:51:28;;;;;;;;;5.33;5.33;;;;;10.40;76.90;101698.59;4894068;28;45823;-84
2021/12/11 12:53:56;;;;;;;;;6.67;6.67;;;;;10.41;73.10;101705.63;4903797;28;45437;-84
2021/12/11 12:56:28;;;;;;;;;9.33;5.67;;;;;10.40;76.09;101711.72;4888466;29;45659;-83
2021/12/11 12:59:06;;;;;;;;;11.00;8.33;;;;;10.39;76.10;101710.81;4894813;29;45466;-87
2021/12/11 13:01:37;;;;;;;;;9.33;5.67;;;;;10.42;74.76;101711.78;4899228;28;46694;-83
2021/12/11 13:04:05;;;;;;;;;7.67;7.00;;;;;10.39;76.15;101700.31;4895828;28;45875;-83
2021/12/11 13:06:37;;;;;;;;;9.33;9.33;;;;;10.48;75.84;101709.56;4895565;28;45554;-82
2021/12/11 13:09:28;;;;;;;;;8.33;8.33;;;;;10.59;77.12;101705.00;4894579;29;45495;-84
2021/12/11 13:12:04;;;;;;;;;7.00;4.67;;;;;10.61;76.05;101688.53;4891910;29;46271;-82
2021/12/11 13:14:31;;;;;;;;;7.00;7.00;;;;;10.65;75.23;101688.69;4884867;29;45498;-83
2021/12/11 13:17:04;;;;;;;;;9.00;7.00;;;;;10.66;76.24;101701.03;4893804;29;45598;-83
2021/12/11 13:19:37;;;;;;;;;7.00;4.33;;;;;10.67;76.79;101693.22;4903323;28;45501;-85
2021/12/11 13:22:09;;;;;;;;;10.00;5.33;;;;;10.73;76.46;101696.22;4877304;29;47290;-85
2021/12/11 13:24:37;;;;;;;;;9.67;7.00;;;;;10.76;76.96;101695.50;4932927;28;45595;-85
2021/12/11 13:27:08;;;;;;;;;6.33;6.33;;;;;10.72;75.50;101694.41;4915624;28;45443;-83
2021/12/11 13:29:38;;;;;;;;;8.33;7.33;;;;;10.78;75.28;101690.34;4927808;28;50091;-84
2021/12/11 13:32:17;;;;;;;;;11.00;7.00;;;;;10.82;72.42;101701.13;4932990;28;46673;-83
2021/12/11 13:34:46;;;;;;;;;13.00;5.67;;;;;10.72;74.98;101689.16;4933192;28;45526;-83
2021/12/11 13:37:15;;;;;;;;;12.00;10.33;;;;;10.74;75.20;101697.16;4920315;28;47449;-84
2021/12/11 13:39:43;;;;;;;;;10.00;9.00;;;;;10.70;75.65;101696.03;4937759;28;45693;-84
2021/12/11 13:42:12;;;;;;;;;11.33;9.33;;;;;10.73;73.10;101698.88;4920465;28;46482;-83
2021/12/11 13:44:42;;;;;;;;;9.67;8.67;;;;;10.75;74.87;101698.03;4936169;28;45456;-84
2021/12/11 13:47:13;;;;;;;;;13.33;10.00;;;;;10.80;75.12;101700.13;4935359;28;45905;-84
2021/12/11 13:49:38;;;;;;;;;9.00;7.00;;;;;10.83;74.63;101713.44;4940437;28;45577;-84
2021/12/11 13:52:04;;;;;;;;;9.67;7.67;;;;;10.81;73.49;101712.44;4938142;28;46294;-84
2021/12/11 13:54:33;;;;;;;;;6.00;4.33;;;;;10.81;75.51;101714.16;4936568;28;46800;-84
2021/12/11 13:57:05;;;;;;;;;5.33;5.33;;;;;10.76;75.22;101713.00;4934972;28;45340;-84
2021/12/11 13:59:31;;;;;;;;;13.00;8.33;;;;;10.84;75.61;101727.50;4935797;28;45453;-83
2021/12/11 14:01:58;;;;;;;;;9.00;8.67;;;;;10.87;76.10;101732.03;4936779;28;45763;-83
2021/12/11 14:04:27;;;;;;;;;10.00;9.00;;;;;10.85;75.12;101734.53;4939452;28;45404;-84
2021/12/11 14:07:10;;;;;;;;;9.33;9.33;;;;;10.78;74.70;101730.66;4937430;28;45432;-85
2021/12/11 14:09:38;;;;;;;;;10.67;9.67;;;;;10.66;74.52;101738.69;4940926;28;45532;-83
2021/12/11 14:12:05;;;;;;;;;8.67;6.67;;;;;10.47;74.09;101745.41;4943558;28;47489;-83
2021/12/11 14:14:30;;;;;;;;;9.00;7.67;;;;;10.31;75.58;101735.66;4935754;28;46241;-82
2021/12/11 14:16:55;;;;;;;;;8.67;8.00;;;;;10.23;75.87;101743.03;4935307;28;45437;-82
2021/12/11 14:19:21;;;;;;;;;8.67;8.00;;;;;10.21;76.28;101749.91;4930245;28;47835;-83
2021/12/11 14:21:47;;;;;;;;;9.33;8.00;;;;;10.19;76.06;101748.91;4914538;28;47384;-83
2021/12/11 14:24:13;;;;;;;;;11.67;6.33;;;;;10.24;76.22;101737.00;4912526;28;46780;-82
2021/12/11 14:26:43;;;;;;;;;5.67;5.67;;;;;10.35;75.16;101745.56;4933755;28;45454;-83
2021/12/11 14:29:09;;;;;;;;;1.67;1.67;;;;;10.41;75.08;101747.63;4916166;28;45311;-84
2021/12/11 14:31:37;;;;;;;;;6.00;3.67;;;;;10.40;74.38;101737.97;4932879;28;47403;-84
2021/12/11 14:34:02;;;;;;;;;8.67;5.67;;;;;10.43;75.37;101742.50;4926870;28;45846;-84
2021/12/11 14:36:30;;;;;;;;;9.67;5.00;;;;;10.49;75.41;101741.16;4905147;28;45786;-83
2021/12/11 14:39:04;;;;;;;;;10.00;4.33;;;;;10.46;73.75;101748.81;4931543;28;45534;-83
2021/12/11 14:41:35;;;;;;;;;8.33;5.33;;;;;10.47;74.49;101747.09;4926190;28;45557;-84
2021/12/11 14:44:07;;;;;;;;;10.00;5.67;;;;;10.35;74.25;101742.94;4932890;28;45341;-83
2021/12/11 14:46:33;;;;;;;;;8.00;7.33;;;;;10.32;74.52;101753.22;4931373;28;45441;-83
2021/12/11 14:49:00;;;;;;;;;4.00;4.00;;;;;10.23;71.87;101750.03;4923638;28;45603;-84
2021/12/11 14:51:28;;;;;;;;;9.00;5.33;;;;;10.13;74.69;101745.91;4927721;28;45554;-83
2021/12/11 14:53:56;;;;;;;;;7.67;5.00;;;;;10.09;74.52;101747.44;4928742;28;45700;-83
2021/12/11 14:56:34;;;;;;;;;7.67;7.00;;;;;10.02;74.20;101745.25;4932776;28;45429;-83
2021/12/11 14:59:07;;;;;;;;;3.67;3.67;;;;;9.92;75.21;101738.50;4931552;28;45459;-83
2021/12/11 15:01:37;;;;;;;;;6.33;3.00;;;;;9.86;74.70;101751.22;4932131;28;45514;-83
2021/12/11 15:04:06;;;;;;;;;8.67;7.67;;;;;9.75;74.83;101740.94;4932989;28;45397;-84
2021/12/11 15:06:32;;;;;;;;;7.00;4.00;;;;;9.69;74.97;101748.41;4926878;28;45489;-83
2021/12/11 15:08:57;;;;;;;;;7.33;4.00;;;;;9.59;75.02;101739.94;4923290;28;45479;-85
2021/12/11 15:11:27;;;;;;;;;7.67;7.67;;;;;9.57;76.01;101733.69;4933277;28;45556;-85
2021/12/11 15:13:56;;;;;;;;;4.00;3.00;;;;;9.53;75.68;101731.69;4938633;28;45517;-84
2021/12/11 15:16:23;;;;;;;;;8.33;5.67;;;;;9.53;76.28;101755.28;4933060;28;45454;-84
2021/12/11 15:18:49;;;;;;;;;3.67;3.67;;;;;9.47;76.05;101755.75;4933326;28;45608;-84
2021/12/11 15:21:18;;;;;;;;;8.00;5.00;;;;;9.40;76.64;101753.53;4931709;28;46697;-84
2021/12/11 15:23:48;;;;;;;;;11.67;5.00;;;;;9.34;75.90;101756.66;4931915;28;45522;-84
2021/12/11 15:26:14;;;;;;;;;9.00;5.33;;;;;9.29;75.01;101776.41;4931610;28;45564;-84
2021/12/11 15:28:41;;;;;;;;;6.67;4.00;;;;;9.23;76.98;101775.97;4935302;28;45525;-84
2021/12/11 15:31:12;;;;;;;;;8.33;4.67;;;;;9.15;76.65;101797.31;4936908;28;46466;-84
2021/12/11 15:33:44;;;;;;;;;12.00;4.33;;;;;9.10;76.24;101801.34;4931979;28;45551;-84
2021/12/11 15:36:11;;;;;;;;;7.67;6.67;;;;;9.04;76.54;101799.22;4936375;28;45569;-83
2021/12/11 15:38:39;;;;;;;;;10.00;7.33;;;;;9.01;76.59;101792.88;4932430;28;45589;-84
2021/12/11 15:41:05;;;;;;;;;9.00;5.00;;;;;8.92;77.28;101799.28;4932683;28;46458;-85
2021/12/11 15:43:32;;;;;;;;;8.00;7.00;;;;;8.84;76.80;101795.19;4934391;28;45485;-85
2021/12/11 15:46:04;;;;;;;;;13.67;8.33;;;;;8.82;76.66;101810.81;4932681;28;45407;-84
2021/12/11 15:48:29;;;;;;;;;7.33;6.33;;;;;8.75;76.54;101805.03;4930036;28;45591;-83
2021/12/11 15:50:57;;;;;;;;;10.33;7.00;;;;;8.73;76.67;101806.66;4928286;28;45546;-85
2021/12/11 15:53:23;;;;;;;;;6.67;6.00;;;;;8.65;76.61;101804.41;4928240;28;45573;-86
2021/12/11 15:55:51;;;;;;;;;7.67;6.33;;;;;8.66;77.17;101816.69;4935419;28;45413;-86
2021/12/11 15:58:17;;;;;;;;;7.00;6.00;;;;;8.66;77.23;101827.16;4935889;28;45432;-87
2021/12/11 16:00:53;;;;;;;;;6.00;5.67;;;;;8.62;77.36;101819.91;4933649;28;45522;-87
2021/12/11 16:03:18;;;;;;;;;9.00;6.00;;;;;8.67;77.20;101830.69;4935429;28;45365;-88
2021/12/11 16:05:46;;;;;;;;;8.67;7.00;;;;;8.66;77.09;101815.78;4934777;28;45325;-87
2021/12/11 16:08:12;;;;;;;;;8.00;7.00;;;;;8.70;76.96;101823.06;4933539;28;45624;-87
2021/12/11 16:10:39;;;;;;;;;10.33;7.67;;;;;8.67;76.09;101817.59;4935537;28;45586;-87
2021/12/11 16:13:06;;;;;;;;;8.67;7.33;;;;;8.69;77.17;101829.06;4918174;28;45374;-87
2021/12/11 16:15:36;;;;;;;;;7.67;7.00;;;;;8.74;77.28;101826.78;4921535;28;45500;-87
2021/12/11 16:18:01;;;;;;;;;9.00;7.67;;;;;8.76;75.52;101839.19;4934776;28;45655;-87
2021/12/11 16:20:31;;;;;;;;;8.00;4.33;;;;;8.74;77.54;101835.53;4936588;28;46243;-87
2021/12/11 16:22:56;;;;;;;;;6.00;6.00;;;;;8.75;75.48;101837.38;4916035;28;45949;-87
2021/12/11 16:25:26;;;;;;;;;8.00;6.67;;;;;8.78;76.43;101832.38;4933204;28;45365;-86
2021/12/11 16:27:55;;;;;;;;;7.00;5.00;;;;;8.79;76.28;101833.25;4931435;28;45974;-86
2021/12/11 16:30:24;;;;;;;;;10.00;7.67;;;;;8.74;76.67;101824.16;4920965;28;46384;-84
2021/12/11 16:32:50;;;;;;;;;9.00;5.00;;;;;8.78;76.44;101826.22;4915251;28;45373;-85
2021/12/11 16:35:17;;;;;;;;;11.33;7.33;;;;;8.78;76.42;101828.84;4932185;28;45444;-85
2021/12/11 16:37:44;;;;;;;;;7.00;5.67;;;;;8.81;76.74;101834.28;4933238;28;45665;-84
2021/12/11 16:40:21;;;;;;;;;8.67;6.67;;;;;8.78;76.19;101827.13;4931759;28;45565;-83
2021/12/11 16:43:08;;;;;;;;;7.33;7.00;;;;;8.84;76.83;101842.34;4932785;28;45398;-84
2021/12/11 16:45:38;;;;;;;;;9.00;8.00;;;;;8.85;76.63;101845.88;4927175;28;45512;-84
2021/12/11 16:48:04;;;;;;;;;9.00;5.67;;;;;8.85;75.31;101841.53;4933180;28;45492;-84
2021/12/11 16:50:33;;;;;;;;;9.33;6.67;;;;;8.83;75.41;101835.31;4915537;28;46416;-85
2021/12/11 16:52:59;;;;;;;;;6.33;6.33;;;;;8.87;76.67;101847.78;4922377;28;45927;-83
2021/12/11 16:55:24;;;;;;;;;7.33;7.00;;;;;8.89;75.73;101851.41;4931522;28;45705;-87
2021/12/11 16:57:52;;;;;;;;;5.67;5.67;;;;;8.89;76.73;101854.03;4915769;28;45447;-84
2021/12/11 17:00:20;;;;;;;;;6.00;6.00;;;;;8.89;76.20;101855.78;4931307;28;46486;-83
2021/12/11 17:02:47;;;;;;;;;7.33;7.00;;;;;8.88;75.21;101844.38;4933375;28;45763;-85
2021/12/11 17:05:13;;;;;;;;;7.67;7.67;;;;;8.84;76.32;101850.19;4917581;28;45557;-84
2021/12/11 17:07:39;;;;;;;;;4.67;4.67;;;;;8.84;76.11;101852.81;4938037;28;45502;-83
2021/12/11 17:10:08;;;;;;;;;8.00;7.67;;;;;8.85;76.61;101861.56;4932376;28;46477;-84
2021/12/11 17:12:34;;;;;;;;;8.00;8.00;;;;;8.82;76.00;101857.03;4913690;28;45781;-83
2021/12/11 17:15:01;;;;;;;;;7.33;7.33;;;;;8.81;75.39;101861.34;4929964;28;45491;-86
2021/12/11 17:17:29;;;;;;;;;8.00;5.33;;;;;8.75;76.56;101857.41;4927618;28;45573;-86
2021/12/11 17:19:55;;;;;;;;;8.67;7.00;;;;;8.73;76.76;101867.78;4918247;28;47310;-85
2021/12/11 17:22:21;;;;;;;;;7.33;7.00;;;;;8.74;76.89;101880.06;4916773;28;45988;-85
2021/12/11 17:24:48;;;;;;;;;8.67;7.00;;;;;8.69;76.13;101874.50;4933362;28;45575;-84
2021/12/11 17:27:20;;;;;;;;;11.67;10.00;;;;;8.63;76.92;101875.78;4933283;28;45513;-85
2021/12/11 17:29:49;;;;;;;;;13.33;7.67;;;;;8.64;77.03;101880.19;4938594;28;48332;-84
2021/12/11 17:32:15;;;;;;;;;8.33;7.00;;;;;8.58;77.08;101875.41;4932147;28;45416;-85
2021/12/11 17:34:41;;;;;;;;;10.33;9.00;;;;;8.59;77.19;101890.34;4930670;28;45567;-84
2021/12/11 17:37:07;;;;;;;;;8.67;7.00;;;;;8.52;76.67;101888.97;4933395;28;45385;-84
2021/12/11 17:39:33;;;;;;;;;12.33;9.00;;;;;8.53;76.58;101893.38;4917076;28;48139;-84
2021/12/11 17:42:01;;;;;;;;;9.00;9.00;;;;;8.52;76.97;101896.81;4935659;28;45996;-84
2021/12/11 17:44:32;;;;;;;;;10.67;10.33;;;;;8.46;77.11;101886.81;4934438;28;45817;-83
2021/12/11 17:46:58;;;;;;;;;9.67;7.00;;;;;8.47;77.45;101900.81;4932421;28;45608;-84
2021/12/11 17:49:23;;;;;;;;;15.33;13.00;;;;;8.48;77.05;101906.13;4929138;28;46727;-84
2021/12/11 17:51:49;;;;;;;;;12.67;12.00;;;;;8.45;76.78;101911.13;4916572;28;45390;-84
2021/12/11 17:54:17;;;;;;;;;14.33;12.33;;;;;8.45;76.74;101916.38;4934967;28;45492;-84
2021/12/11 17:56:44;;;;;;;;;11.67;10.33;;;;;8.42;77.07;101910.03;4934898;28;45706;-84
2021/12/11 17:59:11;;;;;;;;;13.00;9.33;;;;;8.35;76.04;101896.47;4935066;28;46133;-83
2021/12/11 18:01:48;;;;;;;;;10.33;8.33;;;;;8.37;77.02;101909.69;4932282;28;45816;-84
2021/12/11 18:04:35;;;;;;;;;11.00;8.33;;;;;8.36;76.99;101905.25;4935228;28;45299;-84
2021/12/11 18:07:23;;;;;;;;;8.67;7.67;;;;;8.35;76.92;101908.69;4918427;28;45480;-83
2021/12/11 18:09:51;;;;;;;;;12.67;12.33;;;;;8.34;76.65;101906.84;4918982;28;46391;-84
2021/12/11 18:12:27;;;;;;;;;14.67;12.67;;;;;8.33;76.76;101902.41;4939469;28;45462;-84
2021/12/11 18:15:00;;;;;;;;;15.67;13.00;;;;;8.26;76.71;101894.13;4926440;28;45514;-84
2021/12/11 18:17:30;;;;;;;;;18.33;12.67;;;;;8.26;76.68;101891.50;4915822;28;45355;-84
2021/12/11 18:20:11;;;;;;;;;13.00;11.33;;;;;8.24;76.72;101898.34;4934649;28;46492;-84
2021/12/11 18:22:38;;;;;;;;;11.67;11.67;;;;;8.26;76.59;101895.81;4937469;28;45425;-84
2021/12/11 18:25:08;;;;;;;;;19.33;12.00;;;;;8.27;76.89;101895.03;4934569;28;45543;-84
2021/12/11 18:27:37;;;;;;;;;14.33;8.67;;;;;8.27;76.18;101887.19;4937993;28;45447;-86
2021/12/11 18:30:06;;;;;;;;;12.33;10.00;;;;;8.26;76.15;101886.28;4935282;28;46255;-84
2021/12/11 18:32:32;;;;;;;;;15.00;12.33;;;;;8.23;76.66;101878.19;4932781;28;45623;-85
2021/12/11 18:35:02;;;;;;;;;16.33;10.00;;;;;8.18;76.08;101884.78;4923886;28;45532;-85
2021/12/11 18:37:33;;;;;;;;;13.33;13.33;;;;;8.18;76.70;101887.41;4933026;28;45406;-85
2021/12/11 18:40:08;;;;;;;;;15.33;12.33;;;;;8.16;76.55;101889.00;4938394;28;45497;-84
2021/12/11 18:42:35;;;;;;;;;14.67;12.67;;;;;8.16;76.52;101889.91;4931657;28;46724;-84
2021/12/11 18:45:08;;;;;;;;;13.33;10.67;;;;;8.19;76.08;101904.94;4921011;28;45435;-84